sensor_id;sensor_type;location;lat;lon;timestamp;temperature;humidity
7046;DHT22;3564;53.326;10.356;2024-01-10T00:02:05;-1.60;99.90
7046;DHT22;3564;53.326;10.356;2024-01-10T00:04:34;-1.60;99.90
7046;DHT22;3564;53.326;10.356;2024-01-10T00:07:00;-1.50;99.90
7046;DHT22;3564;53.326;10.356;2024-01-10T00:09:25;-1.50;99.90
7046;DHT22;3564;53.326;10.356;2024-01-10T00:11:51;-1.50;99.90
7046;DHT22;3564;53.326;10.356;2024-01-10T00:14:16;-1.40;99.90
7046;DHT22;3564;53.326;10.356;2024-01-10T00:16:42;-1.40;99.90
7046;DHT22;3564;53.326;10.356;2024-01-10T00:19:07;-1.40;99.90
7046;DHT22;3564;53.326;10.356;2024-01-10T00:21:33;-1.30;99.90
7046;DHT22;3564;53.326;10.356;2024-01-10T00:24:00;-1.40;99.90
7046;DHT22;3564;53.326;10.356;2024-01-10T00:26:26;-1.40;99.90
7046;DHT22;3564;53.326;10.356;2024-01-10T00:28:51;-1.40;99.90
7046;DHT22;3564;53.326;10.356;2024-01-10T00:31:23;-1.50;99.90
7046;DHT22;3564;53.326;10.356;2024-01-10T00:33:49;-1.50;99.90
7046;DHT22;3564;53.326;10.356;2024-01-10T00:36:14;-1.40;99.90
7046;DHT22;3564;53.326;10.356;2024-01-10T00:38:40;-1.40;99.90
7046;DHT22;3564;53.326;10.356;2024-01-10T00:41:06;-1.50;99.90
7046;DHT22;3564;53.326;10.356;2024-01-10T00:43:31;-1.40;99.90
7046;DHT22;3564;53.326;10.356;2024-01-10T00:45:57;-1.40;99.90
7046;DHT22;3564;53.326;10.356;2024-01-10T00:48:25;-1.40;99.90
7046;DHT22;3564;53.326;10.356;2024-01-10T00:50:51;-1.30;99.90
7046;DHT22;3564;53.326;10.356;2024-01-10T00:53:20;-1.30;99.90
7046;DHT22;3564;53.326;10.356;2024-01-10T00:55:45;-1.30;99.90
7046;DHT22;3564;53.326;10.356;2024-01-10T00:58:11;-1.30;99.90
7046;DHT22;3564;53.326;10.356;2024-01-10T01:00:39;-1.20;99.90
7046;DHT22;3564;53.326;10.356;2024-01-10T01:03:13;-1.30;99.90
7046;DHT22;3564;53.326;10.356;2024-01-10T01:05:44;-1.20;99.90
7046;DHT22;3564;53.326;10.356;2024-01-10T01:08:10;-1.20;99.90
7046;DHT22;3564;53.326;10.356;2024-01-10T01:10:35;-1.10;99.90
7046;DHT22;3564;53.326;10.356;2024-01-10T01:13:04;-1.20;99.90
7046;DHT22;3564;53.326;10.356;2024-01-10T01:15:29;-1.20;99.90
7046;DHT22;3564;53.326;10.356;2024-01-10T01:17:55;-1.20;99.90
7046;DHT22;3564;53.326;10.356;2024-01-10T01:20:20;-1.20;99.90
7046;DHT22;3564;53.326;10.356;2024-01-10T01:22:52;-1.20;99.90
7046;DHT22;3564;53.326;10.356;2024-01-10T01:25:18;-1.20;99.90
7046;DHT22;3564;53.326;10.356;2024-01-10T01:27:46;-1.20;99.90
7046;DHT22;3564;53.326;10.356;2024-01-10T01:30:12;-1.20;99.90
7046;DHT22;3564;53.326;10.356;2024-01-10T01:32:38;-1.10;99.90
7046;DHT22;3564;53.326;10.356;2024-01-10T01:35:06;-1.20;99.90
7046;DHT22;3564;53.326;10.356;2024-01-10T01:37:32;-1.20;99.90
7046;DHT22;3564;53.326;10.356;2024-01-10T01:39:57;-1.20;99.90
7046;DHT22;3564;53.326;10.356;2024-01-10T01:42:23;-1.10;99.90
7046;DHT22;3564;53.326;10.356;2024-01-10T01:44:52;-1.20;99.90
7046;DHT22;3564;53.326;10.356;2024-01-10T01:47:17;-1.20;99.90
7046;DHT22;3564;53.326;10.356;2024-01-10T01:49:45;-1.20;99.90
7046;DHT22;3564;53.326;10.356;2024-01-10T01:52:12;-1.20;99.90
7046;DHT22;3564;53.326;10.356;2024-01-10T01:54:37;-1.20;99.90
7046;DHT22;3564;53.326;10.356;2024-01-10T01:57:06;-1.20;99.90
7046;DHT22;3564;53.326;10.356;2024-01-10T01:59:32;-1.10;99.90
7046;DHT22;3564;53.326;10.356;2024-01-10T02:02:01;-1.10;99.90
7046;DHT22;3564;53.326;10.356;2024-01-10T02:04:28;-1.10;99.90
7046;DHT22;3564;53.326;10.356;2024-01-10T02:06:55;-1.10;99.90
7046;DHT22;3564;53.326;10.356;2024-01-10T02:09:21;-1.10;99.90
7046;DHT22;3564;53.326;10.356;2024-01-10T02:11:47;-1.10;99.90
7046;DHT22;3564;53.326;10.356;2024-01-10T02:14:12;-1.10;99.90
7046;DHT22;3564;53.326;10.356;2024-01-10T02:16:38;-1.10;99.90
7046;DHT22;3564;53.326;10.356;2024-01-10T02:19:18;-1.10;99.90
7046;DHT22;3564;53.326;10.356;2024-01-10T02:21:44;-1.10;99.90
7046;DHT22;3564;53.326;10.356;2024-01-10T02:24:09;-1.10;99.90
7046;DHT22;3564;53.326;10.356;2024-01-10T02:26:39;-1.20;99.90
7046;DHT22;3564;53.326;10.356;2024-01-10T02:29:05;-1.20;99.90
7046;DHT22;3564;53.326;10.356;2024-01-10T02:31:30;-1.20;99.90
7046;DHT22;3564;53.326;10.356;2024-01-10T02:33:56;-1.20;99.90
7046;DHT22;3564;53.326;10.356;2024-01-10T02:36:21;-1.20;99.90
7046;DHT22;3564;53.326;10.356;2024-01-10T02:38:47;-1.20;99.90
7046;DHT22;3564;53.326;10.356;2024-01-10T02:41:15;-1.20;99.90
7046;DHT22;3564;53.326;10.356;2024-01-10T02:43:44;-1.20;99.90
7046;DHT22;3564;53.326;10.356;2024-01-10T02:46:10;-1.20;99.90
7046;DHT22;3564;53.326;10.356;2024-01-10T02:48:35;-1.30;99.90
7046;DHT22;3564;53.326;10.356;2024-01-10T02:51:01;-1.30;99.90
7046;DHT22;3564;53.326;10.356;2024-01-10T02:53:30;-1.30;99.90
7046;DHT22;3564;53.326;10.356;2024-01-10T02:55:58;-1.30;99.90
7046;DHT22;3564;53.326;10.356;2024-01-10T02:58:24;-1.30;99.90
7046;DHT22;3564;53.326;10.356;2024-01-10T03:00:50;-1.30;99.90
7046;DHT22;3564;53.326;10.356;2024-01-10T03:03:16;-1.30;99.90
7046;DHT22;3564;53.326;10.356;2024-01-10T03:05:42;-1.40;99.90
7046;DHT22;3564;53.326;10.356;2024-01-10T03:08:07;-1.40;99.90
7046;DHT22;3564;53.326;10.356;2024-01-10T03:10:36;-1.40;99.90
7046;DHT22;3564;53.326;10.356;2024-01-10T03:13:01;-1.40;99.90
7046;DHT22;3564;53.326;10.356;2024-01-10T03:15:28;-1.30;99.90
7046;DHT22;3564;53.326;10.356;2024-01-10T03:18:02;-1.30;99.90
7046;DHT22;3564;53.326;10.356;2024-01-10T03:20:28;-1.40;99.90
7046;DHT22;3564;53.326;10.356;2024-01-10T03:22:54;-1.40;99.90
7046;DHT22;3564;53.326;10.356;2024-01-10T03:25:19;-1.40;99.90
7046;DHT22;3564;53.326;10.356;2024-01-10T03:27:45;-1.50;99.90
7046;DHT22;3564;53.326;10.356;2024-01-10T03:30:13;-1.40;99.90
7046;DHT22;3564;53.326;10.356;2024-01-10T03:32:39;-1.50;99.90
7046;DHT22;3564;53.326;10.356;2024-01-10T03:35:05;-1.50;99.90
7046;DHT22;3564;53.326;10.356;2024-01-10T03:37:31;-1.50;99.90
7046;DHT22;3564;53.326;10.356;2024-01-10T03:39:57;-1.50;99.90
7046;DHT22;3564;53.326;10.356;2024-01-10T03:42:24;-1.50;99.90
7046;DHT22;3564;53.326;10.356;2024-01-10T03:44:50;-1.50;99.90
7046;DHT22;3564;53.326;10.356;2024-01-10T03:47:15;-1.60;99.90
7046;DHT22;3564;53.326;10.356;2024-01-10T03:49:41;-1.50;99.90
7046;DHT22;3564;53.326;10.356;2024-01-10T03:52:06;-1.60;99.90
7046;DHT22;3564;53.326;10.356;2024-01-10T03:54:32;-1.60;99.90
7046;DHT22;3564;53.326;10.356;2024-01-10T03:57:02;-1.60;99.90
7046;DHT22;3564;53.326;10.356;2024-01-10T03:59:27;-1.60;99.90
7046;DHT22;3564;53.326;10.356;2024-01-10T04:01:53;-1.70;99.90
7046;DHT22;3564;53.326;10.356;2024-01-10T04:04:18;-1.70;99.90
7046;DHT22;3564;53.326;10.356;2024-01-10T04:06:44;-1.70;99.90
7046;DHT22;3564;53.326;10.356;2024-01-10T04:09:13;-1.70;99.90
7046;DHT22;3564;53.326;10.356;2024-01-10T04:11:38;-1.80;99.90
7046;DHT22;3564;53.326;10.356;2024-01-10T04:14:04;-1.80;99.90
7046;DHT22;3564;53.326;10.356;2024-01-10T04:16:33;-1.80;99.90
7046;DHT22;3564;53.326;10.356;2024-01-10T04:18:59;-1.80;99.90
7046;DHT22;3564;53.326;10.356;2024-01-10T04:21:25;-1.70;99.90
7046;DHT22;3564;53.326;10.356;2024-01-10T04:23:50;-1.70;99.90
7046;DHT22;3564;53.326;10.356;2024-01-10T04:26:17;-1.70;99.90
7046;DHT22;3564;53.326;10.356;2024-01-10T04:28:46;-1.70;99.90
7046;DHT22;3564;53.326;10.356;2024-01-10T04:31:11;-1.70;99.90
7046;DHT22;3564;53.326;10.356;2024-01-10T04:33:40;-1.70;99.80
7046;DHT22;3564;53.326;10.356;2024-01-10T04:36:09;-1.70;99.80
7046;DHT22;3564;53.326;10.356;2024-01-10T04:38:34;-1.70;99.70
7046;DHT22;3564;53.326;10.356;2024-01-10T04:41:00;-1.70;99.70
7046;DHT22;3564;53.326;10.356;2024-01-10T04:43:25;-1.80;99.70
7046;DHT22;3564;53.326;10.356;2024-01-10T04:45:51;-1.80;99.60
7046;DHT22;3564;53.326;10.356;2024-01-10T04:48:20;-1.80;99.50
7046;DHT22;3564;53.326;10.356;2024-01-10T04:50:45;-1.80;99.40
7046;DHT22;3564;53.326;10.356;2024-01-10T04:53:11;-1.90;99.30
7046;DHT22;3564;53.326;10.356;2024-01-10T04:55:36;-1.90;99.10
7046;DHT22;3564;53.326;10.356;2024-01-10T04:58:02;-1.80;99.10
7046;DHT22;3564;53.326;10.356;2024-01-10T05:00:28;-1.90;98.90
7046;DHT22;3564;53.326;10.356;2024-01-10T05:02:53;-1.70;98.90
7046;DHT22;3564;53.326;10.356;2024-01-10T05:05:19;-1.90;98.60
7046;DHT22;3564;53.326;10.356;2024-01-10T05:07:54;-1.90;98.30
7046;DHT22;3564;53.326;10.356;2024-01-10T05:10:23;-1.90;98.10
7046;DHT22;3564;53.326;10.356;2024-01-10T05:12:51;-2.00;98.00
7046;DHT22;3564;53.326;10.356;2024-01-10T05:15:17;-2.00;97.90
7046;DHT22;3564;53.326;10.356;2024-01-10T05:17:46;-2.00;97.90
7046;DHT22;3564;53.326;10.356;2024-01-10T05:20:14;-2.10;97.70
7046;DHT22;3564;53.326;10.356;2024-01-10T05:22:40;-2.10;97.50
7046;DHT22;3564;53.326;10.356;2024-01-10T05:25:06;-2.20;97.30
7046;DHT22;3564;53.326;10.356;2024-01-10T05:27:32;-2.20;97.30
7046;DHT22;3564;53.326;10.356;2024-01-10T05:30:04;-2.30;97.20
7046;DHT22;3564;53.326;10.356;2024-01-10T05:32:30;-2.30;97.30
7046;DHT22;3564;53.326;10.356;2024-01-10T05:34:55;-2.30;97.40
7046;DHT22;3564;53.326;10.356;2024-01-10T05:37:21;-2.40;97.30
7046;DHT22;3564;53.326;10.356;2024-01-10T05:39:47;-2.40;97.40
7046;DHT22;3564;53.326;10.356;2024-01-10T05:42:14;-2.50;97.40
7046;DHT22;3564;53.326;10.356;2024-01-10T05:44:39;-2.50;97.60
7046;DHT22;3564;53.326;10.356;2024-01-10T05:47:08;-2.50;97.70
7046;DHT22;3564;53.326;10.356;2024-01-10T05:49:34;-2.50;97.80
7046;DHT22;3564;53.326;10.356;2024-01-10T05:52:00;-2.50;98.10
7046;DHT22;3564;53.326;10.356;2024-01-10T05:54:34;-2.40;98.20
7046;DHT22;3564;53.326;10.356;2024-01-10T05:57:00;-2.40;98.40
7046;DHT22;3564;53.326;10.356;2024-01-10T05:59:31;-2.40;98.50
7046;DHT22;3564;53.326;10.356;2024-01-10T06:02:00;-2.30;98.70
7046;DHT22;3564;53.326;10.356;2024-01-10T06:04:30;-2.30;98.90
7046;DHT22;3564;53.326;10.356;2024-01-10T06:07:00;-2.30;99.10
7046;DHT22;3564;53.326;10.356;2024-01-10T06:09:26;-2.30;99.30
7046;DHT22;3564;53.326;10.356;2024-01-10T06:11:52;-2.30;99.60
7046;DHT22;3564;53.326;10.356;2024-01-10T06:14:18;-2.20;99.80
7046;DHT22;3564;53.326;10.356;2024-01-10T06:16:46;-2.10;99.90
7046;DHT22;3564;53.326;10.356;2024-01-10T06:19:12;-2.10;99.90
7046;DHT22;3564;53.326;10.356;2024-01-10T06:21:38;-2.00;99.90
7046;DHT22;3564;53.326;10.356;2024-01-10T06:24:04;-2.00;99.90
7046;DHT22;3564;53.326;10.356;2024-01-10T06:26:29;-1.90;99.90
7046;DHT22;3564;53.326;10.356;2024-01-10T06:28:55;-1.90;99.90
7046;DHT22;3564;53.326;10.356;2024-01-10T06:31:21;-1.80;99.90
7046;DHT22;3564;53.326;10.356;2024-01-10T06:33:49;-1.80;99.90
7046;DHT22;3564;53.326;10.356;2024-01-10T06:36:15;-1.80;99.90
7046;DHT22;3564;53.326;10.356;2024-01-10T06:38:41;-1.70;99.90
7046;DHT22;3564;53.326;10.356;2024-01-10T06:41:12;-1.70;99.90
7046;DHT22;3564;53.326;10.356;2024-01-10T06:43:39;-1.70;99.90
7046;DHT22;3564;53.326;10.356;2024-01-10T06:46:09;-1.70;99.90
7046;DHT22;3564;53.326;10.356;2024-01-10T06:48:36;-1.60;99.90
7046;DHT22;3564;53.326;10.356;2024-01-10T06:51:01;-1.60;99.90
7046;DHT22;3564;53.326;10.356;2024-01-10T06:53:27;-1.50;99.90
7046;DHT22;3564;53.326;10.356;2024-01-10T06:55:56;-1.50;99.90
7046;DHT22;3564;53.326;10.356;2024-01-10T06:58:21;-1.50;99.90
7046;DHT22;3564;53.326;10.356;2024-01-10T07:00:47;-1.40;99.90
7046;DHT22;3564;53.326;10.356;2024-01-10T07:03:12;-1.40;99.90
7046;DHT22;3564;53.326;10.356;2024-01-10T07:05:38;-1.40;99.90
7046;DHT22;3564;53.326;10.356;2024-01-10T07:08:04;-1.40;99.90
7046;DHT22;3564;53.326;10.356;2024-01-10T07:10:29;-1.30;99.90
7046;DHT22;3564;53.326;10.356;2024-01-10T07:12:55;-1.30;99.90
7046;DHT22;3564;53.326;10.356;2024-01-10T07:15:21;-1.30;99.90
7046;DHT22;3564;53.326;10.356;2024-01-10T07:17:48;-1.20;99.90
7046;DHT22;3564;53.326;10.356;2024-01-10T07:20:13;-1.20;99.90
7046;DHT22;3564;53.326;10.356;2024-01-10T07:22:45;-1.20;99.90
7046;DHT22;3564;53.326;10.356;2024-01-10T07:25:11;-1.20;99.90
7046;DHT22;3564;53.326;10.356;2024-01-10T07:27:40;-1.20;99.90
7046;DHT22;3564;53.326;10.356;2024-01-10T07:30:06;-1.20;99.90
7046;DHT22;3564;53.326;10.356;2024-01-10T07:32:42;-1.10;99.90
7046;DHT22;3564;53.326;10.356;2024-01-10T07:35:08;-1.10;99.90
7046;DHT22;3564;53.326;10.356;2024-01-10T07:37:37;-1.10;99.90
7046;DHT22;3564;53.326;10.356;2024-01-10T07:40:04;-1.10;99.90
7046;DHT22;3564;53.326;10.356;2024-01-10T07:42:37;-1.10;99.90
7046;DHT22;3564;53.326;10.356;2024-01-10T07:45:04;-1.10;99.90
7046;DHT22;3564;53.326;10.356;2024-01-10T07:47:36;-1.10;99.90
7046;DHT22;3564;53.326;10.356;2024-01-10T07:50:10;-1.10;99.90
7046;DHT22;3564;53.326;10.356;2024-01-10T07:52:39;-1.10;99.90
7046;DHT22;3564;53.326;10.356;2024-01-10T07:55:06;-1.10;99.90
7046;DHT22;3564;53.326;10.356;2024-01-10T07:57:32;-1.10;99.90
7046;DHT22;3564;53.326;10.356;2024-01-10T08:00:03;-1.10;99.90
7046;DHT22;3564;53.326;10.356;2024-01-10T08:02:29;-1.10;99.90
7046;DHT22;3564;53.326;10.356;2024-01-10T08:05:00;-1.10;99.90
7046;DHT22;3564;53.326;10.356;2024-01-10T08:07:25;-1.10;99.90
7046;DHT22;3564;53.326;10.356;2024-01-10T08:09:57;-1.10;99.90
7046;DHT22;3564;53.326;10.356;2024-01-10T08:12:25;-1.00;99.90
7046;DHT22;3564;53.326;10.356;2024-01-10T08:14:51;-1.00;99.90
7046;DHT22;3564;53.326;10.356;2024-01-10T08:17:17;-1.00;99.90
7046;DHT22;3564;53.326;10.356;2024-01-10T08:19:42;-1.00;99.90
7046;DHT22;3564;53.326;10.356;2024-01-10T08:22:08;-1.00;99.90
7046;DHT22;3564;53.326;10.356;2024-01-10T08:24:34;-1.00;99.90
7046;DHT22;3564;53.326;10.356;2024-01-10T08:26:59;-1.00;99.90
7046;DHT22;3564;53.326;10.356;2024-01-10T08:29:25;-1.00;99.90
7046;DHT22;3564;53.326;10.356;2024-01-10T08:31:56;-0.90;99.90
7046;DHT22;3564;53.326;10.356;2024-01-10T08:34:22;-0.90;99.90
7046;DHT22;3564;53.326;10.356;2024-01-10T08:36:48;-0.90;99.90
7046;DHT22;3564;53.326;10.356;2024-01-10T08:39:16;-0.90;99.90
7046;DHT22;3564;53.326;10.356;2024-01-10T08:41:42;-0.90;99.90
7046;DHT22;3564;53.326;10.356;2024-01-10T08:44:10;-0.90;99.90
7046;DHT22;3564;53.326;10.356;2024-01-10T08:46:36;-0.80;99.90
7046;DHT22;3564;53.326;10.356;2024-01-10T08:49:02;-0.80;99.90
7046;DHT22;3564;53.326;10.356;2024-01-10T08:51:28;-0.80;99.90
7046;DHT22;3564;53.326;10.356;2024-01-10T08:53:53;-0.80;99.90
7046;DHT22;3564;53.326;10.356;2024-01-10T08:56:19;-0.80;99.90
7046;DHT22;3564;53.326;10.356;2024-01-10T08:58:45;-0.80;99.90
7046;DHT22;3564;53.326;10.356;2024-01-10T09:01:11;-0.70;99.90
7046;DHT22;3564;53.326;10.356;2024-01-10T09:03:37;-0.70;99.90
7046;DHT22;3564;53.326;10.356;2024-01-10T09:06:03;-0.70;99.90
7046;DHT22;3564;53.326;10.356;2024-01-10T09:08:30;-0.60;99.90
7046;DHT22;3564;53.326;10.356;2024-01-10T09:10:58;-0.60;99.90
7046;DHT22;3564;53.326;10.356;2024-01-10T09:13:27;-0.60;99.90
7046;DHT22;3564;53.326;10.356;2024-01-10T09:15:53;-0.60;99.90
7046;DHT22;3564;53.326;10.356;2024-01-10T09:18:18;-0.60;99.90
7046;DHT22;3564;53.326;10.356;2024-01-10T09:20:44;-0.50;99.90
7046;DHT22;3564;53.326;10.356;2024-01-10T09:23:13;-0.50;99.90
7046;DHT22;3564;53.326;10.356;2024-01-10T09:25:39;-0.50;99.90
7046;DHT22;3564;53.326;10.356;2024-01-10T09:28:05;-0.40;99.90
7046;DHT22;3564;53.326;10.356;2024-01-10T09:30:31;-0.40;99.90
7046;DHT22;3564;53.326;10.356;2024-01-10T09:32:56;-0.40;99.90
7046;DHT22;3564;53.326;10.356;2024-01-10T09:35:31;-0.40;99.90
7046;DHT22;3564;53.326;10.356;2024-01-10T09:37:57;-0.40;99.90
7046;DHT22;3564;53.326;10.356;2024-01-10T09:40:22;-0.40;99.90
7046;DHT22;3564;53.326;10.356;2024-01-10T09:42:51;-0.40;99.90
7046;DHT22;3564;53.326;10.356;2024-01-10T09:45:21;-0.40;99.90
7046;DHT22;3564;53.326;10.356;2024-01-10T09:47:49;-0.40;99.90
7046;DHT22;3564;53.326;10.356;2024-01-10T09:50:17;-0.40;99.90
7046;DHT22;3564;53.326;10.356;2024-01-10T09:53:01;-0.30;99.90
7046;DHT22;3564;53.326;10.356;2024-01-10T09:55:36;-0.30;99.90
7046;DHT22;3564;53.326;10.356;2024-01-10T09:58:05;-0.30;99.90
7046;DHT22;3564;53.326;10.356;2024-01-10T10:00:32;-0.30;99.90
7046;DHT22;3564;53.326;10.356;2024-01-10T10:02:59;-0.30;99.90
7046;DHT22;3564;53.326;10.356;2024-01-10T10:05:26;-0.30;99.90
7046;DHT22;3564;53.326;10.356;2024-01-10T10:07:52;-0.30;99.90
7046;DHT22;3564;53.326;10.356;2024-01-10T10:10:24;-0.20;99.90
7046;DHT22;3564;53.326;10.356;2024-01-10T10:12:53;-0.20;99.90
7046;DHT22;3564;53.326;10.356;2024-01-10T10:15:21;-0.20;99.90
7046;DHT22;3564;53.326;10.356;2024-01-10T10:17:49;-0.20;99.90
7046;DHT22;3564;53.326;10.356;2024-01-10T10:20:21;-0.20;99.90
7046;DHT22;3564;53.326;10.356;2024-01-10T10:25:55;-0.20;99.90
7046;DHT22;3564;53.326;10.356;2024-01-10T10:28:21;-0.20;99.90
7046;DHT22;3564;53.326;10.356;2024-01-10T10:30:47;-0.20;99.90
7046;DHT22;3564;53.326;10.356;2024-01-10T10:33:12;-0.20;99.90
7046;DHT22;3564;53.326;10.356;2024-01-10T10:35:38;-0.20;99.90
7046;DHT22;3564;53.326;10.356;2024-01-10T10:38:03;-0.30;99.90
7046;DHT22;3564;53.326;10.356;2024-01-10T10:40:29;-0.30;99.90
7046;DHT22;3564;53.326;10.356;2024-01-10T10:42:56;-0.30;99.90
7046;DHT22;3564;53.326;10.356;2024-01-10T10:45:22;-0.20;99.90
7046;DHT22;3564;53.326;10.356;2024-01-10T10:48:03;-0.20;99.90
7046;DHT22;3564;53.326;10.356;2024-01-10T10:50:33;-0.20;99.90
7046;DHT22;3564;53.326;10.356;2024-01-10T10:53:02;-0.20;99.90
7046;DHT22;3564;53.326;10.356;2024-01-10T10:55:32;-0.20;99.90
7046;DHT22;3564;53.326;10.356;2024-01-10T10:58:01;-0.10;99.90
7046;DHT22;3564;53.326;10.356;2024-01-10T11:00:32;-0.10;99.90
7046;DHT22;3564;53.326;10.356;2024-01-10T11:03:00;-0.10;99.90
7046;DHT22;3564;53.326;10.356;2024-01-10T11:05:28;0.00;99.90
7046;DHT22;3564;53.326;10.356;2024-01-10T11:07:54;0.00;99.90
7046;DHT22;3564;53.326;10.356;2024-01-10T11:10:37;0.00;99.90
7046;DHT22;3564;53.326;10.356;2024-01-10T11:13:13;0.00;99.90
7046;DHT22;3564;53.326;10.356;2024-01-10T11:16:40;0.00;99.90
7046;DHT22;3564;53.326;10.356;2024-01-10T11:24:56;0.00;99.90
7046;DHT22;3564;53.326;10.356;2024-01-10T11:27:26;0.00;99.90
7046;DHT22;3564;53.326;10.356;2024-01-10T11:29:52;0.00;99.90
7046;DHT22;3564;53.326;10.356;2024-01-10T11:32:22;0.00;99.90
7046;DHT22;3564;53.326;10.356;2024-01-10T11:35:05;0.00;99.90
7046;DHT22;3564;53.326;10.356;2024-01-10T11:37:44;0.00;99.90
7046;DHT22;3564;53.326;10.356;2024-01-10T11:40:12;0.10;99.90
7046;DHT22;3564;53.326;10.356;2024-01-10T11:42:45;0.10;99.90
7046;DHT22;3564;53.326;10.356;2024-01-10T11:47:57;0.10;99.90
7046;DHT22;3564;53.326;10.356;2024-01-10T11:50:23;0.20;99.90
7046;DHT22;3564;53.326;10.356;2024-01-10T11:52:53;0.20;99.90
7046;DHT22;3564;53.326;10.356;2024-01-10T11:55:46;0.20;99.90
7046;DHT22;3564;53.326;10.356;2024-01-10T11:58:12;0.30;99.90
7046;DHT22;3564;53.326;10.356;2024-01-10T12:00:41;0.30;99.90
7046;DHT22;3564;53.326;10.356;2024-01-10T12:03:11;0.30;99.90
7046;DHT22;3564;53.326;10.356;2024-01-10T12:05:37;0.30;99.90
7046;DHT22;3564;53.326;10.356;2024-01-10T12:08:07;0.30;99.90
7046;DHT22;3564;53.326;10.356;2024-01-10T12:10:33;0.30;99.90
7046;DHT22;3564;53.326;10.356;2024-01-10T12:13:03;0.30;99.90
7046;DHT22;3564;53.326;10.356;2024-01-10T12:15:29;0.40;99.90
7046;DHT22;3564;53.326;10.356;2024-01-10T12:17:55;0.40;99.90
7046;DHT22;3564;53.326;10.356;2024-01-10T12:20:21;0.40;99.90
7046;DHT22;3564;53.326;10.356;2024-01-10T12:22:49;0.40;99.90
7046;DHT22;3564;53.326;10.356;2024-01-10T12:25:15;0.50;99.90
7046;DHT22;3564;53.326;10.356;2024-01-10T12:27:41;0.50;99.90
7046;DHT22;3564;53.326;10.356;2024-01-10T12:30:07;0.50;99.90
7046;DHT22;3564;53.326;10.356;2024-01-10T12:32:33;0.50;99.90
7046;DHT22;3564;53.326;10.356;2024-01-10T12:35:03;0.60;99.90
7046;DHT22;3564;53.326;10.356;2024-01-10T12:37:28;0.60;99.90
7046;DHT22;3564;53.326;10.356;2024-01-10T12:39:54;0.70;99.90
7046;DHT22;3564;53.326;10.356;2024-01-10T12:42:24;0.70;99.90
7046;DHT22;3564;53.326;10.356;2024-01-10T12:44:59;0.70;99.90
7046;DHT22;3564;53.326;10.356;2024-01-10T12:47:25;0.80;99.90
7046;DHT22;3564;53.326;10.356;2024-01-10T12:49:51;0.80;99.90
7046;DHT22;3564;53.326;10.356;2024-01-10T12:52:17;0.80;99.90
7046;DHT22;3564;53.326;10.356;2024-01-10T12:54:44;0.90;99.90
7046;DHT22;3564;53.326;10.356;2024-01-10T12:57:13;0.90;99.90
7046;DHT22;3564;53.326;10.356;2024-01-10T12:59:39;1.00;99.90
7046;DHT22;3564;53.326;10.356;2024-01-10T13:02:04;1.00;99.90
7046;DHT22;3564;53.326;10.356;2024-01-10T13:04:36;1.00;99.90
7046;DHT22;3564;53.326;10.356;2024-01-10T13:07:02;1.00;99.90
7046;DHT22;3564;53.326;10.356;2024-01-10T13:09:27;1.00;99.90
7046;DHT22;3564;53.326;10.356;2024-01-10T13:11:53;1.10;99.90
7046;DHT22;3564;53.326;10.356;2024-01-10T13:14:19;1.10;99.90
7046;DHT22;3564;53.326;10.356;2024-01-10T13:16:46;1.10;99.90
7046;DHT22;3564;53.326;10.356;2024-01-10T13:19:11;1.10;99.90
7046;DHT22;3564;53.326;10.356;2024-01-10T13:21:37;1.20;99.90
7046;DHT22;3564;53.326;10.356;2024-01-10T13:24:03;1.20;99.90
7046;DHT22;3564;53.326;10.356;2024-01-10T13:26:29;1.30;99.90
7046;DHT22;3564;53.326;10.356;2024-01-10T13:29:03;1.30;99.90
7046;DHT22;3564;53.326;10.356;2024-01-10T13:31:32;1.30;99.90
7046;DHT22;3564;53.326;10.356;2024-01-10T13:33:57;1.40;99.90
7046;DHT22;3564;53.326;10.356;2024-01-10T13:36:23;1.50;99.90
7046;DHT22;3564;53.326;10.356;2024-01-10T13:38:48;1.50;99.90
7046;DHT22;3564;53.326;10.356;2024-01-10T13:41:17;1.60;99.90
7046;DHT22;3564;53.326;10.356;2024-01-10T13:43:43;1.60;99.90
7046;DHT22;3564;53.326;10.356;2024-01-10T13:46:12;1.70;99.90
7046;DHT22;3564;53.326;10.356;2024-01-10T13:48:37;1.70;99.90
7046;DHT22;3564;53.326;10.356;2024-01-10T13:51:03;1.70;99.90
7046;DHT22;3564;53.326;10.356;2024-01-10T13:53:29;1.70;99.90
7046;DHT22;3564;53.326;10.356;2024-01-10T13:55:55;1.70;99.90
7046;DHT22;3564;53.326;10.356;2024-01-10T13:58:20;1.80;99.90
7046;DHT22;3564;53.326;10.356;2024-01-10T14:00:49;1.80;99.90
7046;DHT22;3564;53.326;10.356;2024-01-10T14:03:15;1.80;99.90
7046;DHT22;3564;53.326;10.356;2024-01-10T14:05:41;1.80;99.90
7046;DHT22;3564;53.326;10.356;2024-01-10T14:08:07;1.80;99.90
7046;DHT22;3564;53.326;10.356;2024-01-10T14:10:37;1.70;99.90
7046;DHT22;3564;53.326;10.356;2024-01-10T14:13:04;1.70;99.90
7046;DHT22;3564;53.326;10.356;2024-01-10T14:15:29;1.70;99.90
7046;DHT22;3564;53.326;10.356;2024-01-10T14:17:55;1.70;99.90
7046;DHT22;3564;53.326;10.356;2024-01-10T14:20:32;1.60;99.90
7046;DHT22;3564;53.326;10.356;2024-01-10T14:23:00;1.50;99.90
7046;DHT22;3564;53.326;10.356;2024-01-10T14:25:26;1.50;99.90
7046;DHT22;3564;53.326;10.356;2024-01-10T14:27:52;1.40;99.90
7046;DHT22;3564;53.326;10.356;2024-01-10T14:30:21;1.40;99.90
7046;DHT22;3564;53.326;10.356;2024-01-10T14:32:47;1.40;99.90
7046;DHT22;3564;53.326;10.356;2024-01-10T14:35:12;1.40;99.90
7046;DHT22;3564;53.326;10.356;2024-01-10T14:37:41;1.40;99.90
7046;DHT22;3564;53.326;10.356;2024-01-10T14:40:08;1.30;99.90
7046;DHT22;3564;53.326;10.356;2024-01-10T14:42:34;1.30;99.90
7046;DHT22;3564;53.326;10.356;2024-01-10T14:45:02;1.30;99.90
7046;DHT22;3564;53.326;10.356;2024-01-10T14:47:29;1.30;99.90
7046;DHT22;3564;53.326;10.356;2024-01-10T14:49:58;1.30;99.90
7046;DHT22;3564;53.326;10.356;2024-01-10T14:52:27;1.20;99.90
7046;DHT22;3564;53.326;10.356;2024-01-10T14:54:53;1.20;99.90
7046;DHT22;3564;53.326;10.356;2024-01-10T14:57:19;1.20;99.90
7046;DHT22;3564;53.326;10.356;2024-01-10T14:59:45;1.20;99.90
7046;DHT22;3564;53.326;10.356;2024-01-10T15:02:11;1.20;99.90
7046;DHT22;3564;53.326;10.356;2024-01-10T15:04:41;1.20;99.90
7046;DHT22;3564;53.326;10.356;2024-01-10T15:07:07;1.10;99.90
7046;DHT22;3564;53.326;10.356;2024-01-10T15:09:33;1.10;99.90
7046;DHT22;3564;53.326;10.356;2024-01-10T15:11:58;1.10;99.90
7046;DHT22;3564;53.326;10.356;2024-01-10T15:14:24;1.10;99.90
7046;DHT22;3564;53.326;10.356;2024-01-10T15:16:50;1.10;99.90
7046;DHT22;3564;53.326;10.356;2024-01-10T15:19:15;1.00;99.90
7046;DHT22;3564;53.326;10.356;2024-01-10T15:21:44;1.00;99.90
7046;DHT22;3564;53.326;10.356;2024-01-10T15:24:09;1.00;99.90
7046;DHT22;3564;53.326;10.356;2024-01-10T15:26:35;1.00;99.90
7046;DHT22;3564;53.326;10.356;2024-01-10T15:29:06;1.00;99.90
7046;DHT22;3564;53.326;10.356;2024-01-10T15:31:33;1.00;99.90
7046;DHT22;3564;53.326;10.356;2024-01-10T15:34:01;1.00;99.90
7046;DHT22;3564;53.326;10.356;2024-01-10T15:36:27;0.90;99.90
7046;DHT22;3564;53.326;10.356;2024-01-10T15:38:53;0.90;99.90
7046;DHT22;3564;53.326;10.356;2024-01-10T15:41:19;0.90;99.90
7046;DHT22;3564;53.326;10.356;2024-01-10T15:43:44;0.90;99.90
7046;DHT22;3564;53.326;10.356;2024-01-10T15:46:19;0.90;99.90
7046;DHT22;3564;53.326;10.356;2024-01-10T15:48:46;0.90;99.90
7046;DHT22;3564;53.326;10.356;2024-01-10T15:51:11;0.90;99.90
7046;DHT22;3564;53.326;10.356;2024-01-10T15:53:38;0.90;99.90
7046;DHT22;3564;53.326;10.356;2024-01-10T15:56:04;0.90;99.90
7046;DHT22;3564;53.326;10.356;2024-01-10T15:58:30;0.90;99.90
7046;DHT22;3564;53.326;10.356;2024-01-10T16:00:58;1.00;99.90
7046;DHT22;3564;53.326;10.356;2024-01-10T16:03:24;1.00;99.90